KRAL/RAL METAR and TAF weather

Enter ICAO airport designator
Station Type Date Time Source
KRAL METAR 2020/01/20 09:53 UTC NOAA

KRAL 200953Z AUTO 21003KT 10SM CLR 13/02 A3007 RMK AO2 SLP171 T01280022


Station Type Date Time Source
KRAL Decoded METAR 2020/01/20 09:53 UTC NOAA

RIVERSIDE MUNICIPAL AIRPORT , CA, United States (KRAL) 33-57N 117-27W 252M
Jan 20, 2020 - 04:53 AM EST / 2020.01.20 0953 UTC
Wind: from the SSW (210 degrees) at 3 MPH (3 KT):0
Visibility: 10 mile(s):0
Sky conditions: clear
Temperature: 55.0 F (12.8 C)
Dew Point: 36.0 F (2.2 C)
Relative Humidity: 48%
Pressure (altimeter): 30.07 in. Hg (1018 hPa)
ob: KRAL 200953Z AUTO 21003KT 10SM CLR 13/02 A3007 RMK AO2 SLP171 T01280022
cycle: 10

Station Type Date Time Source
KRAL TAF UTC NOAA

Error!

Example: see airport list